HNT weather

Torre Medica Angeles Heliport
Magdalena Contreras, Ciudad de México, Mexico

Public forecast

Using degrees Celsius for public forecast. Weather courtesy of forecast.io.

Closest aviation weather report (METAR) to Torre Medica Angeles Heliport

Closest report is Licenciado Benito Juarez International Airport, 11.3 nm (20.9 km) NE. Retrieved 2019/11/21 02:41 UTC (0 seconds ago):

MMMX 210241Z 14008KT 9SM FEW020 SCT080 SCT220 19/10 A3033 NOSIG RMK SLP113 52026 905 8/532 HZY

Closest aviation forecast (TAF) to Torre Medica Angeles Heliport

Closest forecast is Licenciado Benito Juarez International Airport, 11.3 nm (20.9 km) NE. Retrieved 2019-11-21 00:33 UTC (2 hours ago):

TAF MMMX 202325Z 2100/2206 34005KT P6SM SCT030 BKN090 BKN230 TX23/2121Z TN12/2112Z TEMPO 2100/2104 VC -RA FM210600 04005KT P6SM SCT020 BKN080 BKN230 FM211200 02005KT 6SM HZ SCT080 SCT230 FM211800 07005KT 5SM HZ SCT030 BKN230 FM220300 04005KT 6SM HZ BKN080 BKN230